West Hempstead, New York
Current Conditions -  °F | °C
As of 4:51 PM on Thursday 23 Oct 2014 (Local Time) from KJFK Reporting Station
Overcast Overcast  
Wind Chill: 12°   Ceiling: 2500
Heat Index: 12°   Visibility: 10mi
Dew Point:   Wind: 23mph
Humidity: 72%   Direction: 340°NNW
Pressure: 29.69"   Gusts: 31mph
Location:  40.7°N, 73.65°W
Report Text: KJFK 232051Z 34020G27KT 10SM BKN025 OVC037 12/07 A2969 RMK AO2 PK WND 34030/1957 SLP054 60000 T01220072 53005
Loading
Personal Weather Stations






























Interactive Weather Map
Tropical Storm Tracking
New forecast layout! Learn more

10-Day Weather Forecast

Advertisements
Track Severe Weather on mobile